Historique des stations

Station météo de Aubigny-sur-Nère

Altitude de la station : 197 m







Données météorologiques pour le 24/09/2022
Date
Heure
Températures Humidité Point de rosée Vitesse
du vent
Direction Rafales Windchill Pression Pluviométrie
Cumul
Date
Heure
Températures Humidité Point de rosée Vitesse
du vent
Direction Rafales Windchill Pression Pluviométrie
Cumul
24/09/2022 20:4714.7 °C55 %5.6 °C5 km/hENE6 km/h14.4 1008 hPa-
24/09/2022 20:4514.6 °C55 %5.6 °C3 km/hNE19 km/h14.4 1008 hPa-
24/09/2022 20:3214.7 °C55 %5.6 °C-NNE11 km/h14.4 1008 hPa-
24/09/2022 20:3014.7 °C56 %6.1 °C2 km/hNE16 km/h15.0 1008 hPa-
24/09/2022 20:1715.1 °C57 %6.7 °C3 km/hENE16 km/h15.0 1008 hPa-
24/09/2022 20:1415.1 °C57 %6.7 °C6 km/hNE16 km/h15.0 1008 hPa-
24/09/2022 20:0215.6 °C57 %6.7 °C13 km/hN14 km/h14.4 1008 hPa-
24/09/2022 20:0015.6 °C56 %6.7 °C8 km/hNNE16 km/h15.6 1008 hPa-
24/09/2022 19:4715.8 °C56 %7.2 °C-N13 km/h16.1 1008 hPa-
24/09/2022 19:4515.8 °C56 %7.2 °C5 km/hN16 km/h16.1 1008 hPa-
24/09/2022 19:3116.0 °C55 %6.7 °C-NE8 km/h16.1 1008 hPa-
24/09/2022 19:3015.9 °C55 %6.7 °C3 km/hN16 km/h16.1 1008 hPa-
24/09/2022 19:1616.4 °C53 %6.7 °C3 km/hN14 km/h16.7 1008 hPa-
24/09/2022 19:1416.6 °C53 %6.7 °C5 km/hNE16 km/h16.7 1008 hPa-
24/09/2022 19:0117.1 °C50 %6.7 °C5 km/hN10 km/h17.2 1007 hPa-
24/09/2022 18:5917.1 °C49 %6.1 °C6 km/hNE16 km/h17.2 1007 hPa-
24/09/2022 18:4617.3 °C48 %6.1 °C5 km/hNNE13 km/h17.2 1007 hPa-
24/09/2022 18:4417.3 °C48 %6.1 °C3 km/hNNE16 km/h17.2 1007 hPa-
24/09/2022 18:3117.4 °C48 %6.1 °C-NNO10 km/h17.2 1007 hPa-
24/09/2022 18:2917.5 °C48 %6.1 °C5 km/hN16 km/h17.8 1007 hPa-
24/09/2022 18:1617.7 °C47 %6.1 °C-NNE10 km/h17.8 1007 hPa-
24/09/2022 18:1417.8 °C47 %6.1 °C2 km/hNNO16 km/h17.8 1007 hPa-
24/09/2022 18:0118.0 °C46 %6.1 °C-NO14 km/h17.8 1007 hPa-
24/09/2022 17:5918.2 °C46 %6.1 °C5 km/hNO14 km/h18.3 1007 hPa-
24/09/2022 17:4618.8 °C41 %5.0 °C8 km/hNO13 km/h18.9 1007 hPa-
24/09/2022 17:4418.9 °C41 %5.0 °C2 km/hNO14 km/h18.9 1007 hPa-
24/09/2022 17:3118.9 °C40 %5.0 °C2 km/hONO8 km/h18.9 1007 hPa-
24/09/2022 17:3018.9 °C40 %5.0 °C-ONO14 km/h18.9 1007 hPa-
24/09/2022 17:1618.8 °C40 %5.0 °C3 km/hO6 km/h18.9 1007 hPa-
24/09/2022 17:1418.8 °C39 %4.4 °C-ONO14 km/h18.9 1007 hPa-
24/09/2022 17:0119.4 °C38 %4.4 °C-O8 km/h19.4 1007 hPa-
24/09/2022 17:0019.4 °C37 %4.4 °C2 km/hO14 km/h19.4 1007 hPa-
24/09/2022 16:4619.1 °C37 %3.9 °C3 km/hO6 km/h18.9 1007 hPa-
24/09/2022 16:4419.2 °C38 %4.4 °C3 km/hO14 km/h19.4 1007 hPa-
24/09/2022 16:3119.3 °C38 %4.4 °C2 km/hOSO5 km/h19.4 1007 hPa-
24/09/2022 16:2919.2 °C39 %5.0 °C-OSO14 km/h19.4 1007 hPa-
24/09/2022 16:1619.3 °C38 %4.4 °C2 km/hSSO8 km/h19.4 1007 hPa-
24/09/2022 16:1419.4 °C38 %4.4 °C3 km/hSSO14 km/h19.4 1007 hPa-
24/09/2022 16:0219.3 °C38 %4.4 °C5 km/hO8 km/h19.4 1007 hPa-
24/09/2022 15:5919.6 °C37 %4.4 °C3 km/hOSO14 km/h19.4 1007 hPa-
24/09/2022 15:4619.3 °C38 %4.4 °C3 km/hO11 km/h19.4 1007 hPa-
24/09/2022 15:4419.4 °C39 %5.0 °C3 km/hONO14 km/h19.4 1007 hPa-
24/09/2022 15:3119.2 °C38 %4.4 °C-O11 km/h19.4 1007 hPa-
24/09/2022 15:2919.3 °C40 %5.6 °C-O14 km/h19.4 1007 hPa-
24/09/2022 15:1718.7 °C40 %5.0 °C-OSO5 km/h18.9 1007 hPa-
24/09/2022 15:1518.7 °C40 %5.0 °C3 km/hSO14 km/h18.9 1008 hPa-
24/09/2022 15:0119.7 °C39 %5.6 °C-ONO11 km/h20.0 1007 hPa-
24/09/2022 15:0019.7 °C39 %5.6 °C3 km/hO14 km/h20.0 1008 hPa-
24/09/2022 14:4719.1 °C40 %5.0 °C-O10 km/h18.9 1008 hPa-
24/09/2022 14:4418.9 °C39 %4.4 °C2 km/hO14 km/h18.9 1008 hPa-
24/09/2022 14:3219.0 °C38 %4.4 °C-ONO11 km/h18.9 1008 hPa-
24/09/2022 14:3019.2 °C38 %4.4 °C3 km/hOSO14 km/h19.4 1008 hPa-
24/09/2022 14:1720.0 °C36 %4.4 °C5 km/hONO11 km/h20.0 1008 hPa-
24/09/2022 14:1520.0 °C36 %4.4 °C3 km/hONO14 km/h20.0 1008 hPa-
24/09/2022 14:0218.7 °C39 %4.4 °C3 km/hONO8 km/h18.9 1008 hPa-
24/09/2022 14:0018.8 °C39 %4.4 °C5 km/hO13 km/h18.9 1008 hPa-
24/09/2022 13:4719.4 °C38 %4.4 °C2 km/hSO6 km/h19.4 1008 hPa-
24/09/2022 13:4519.4 °C38 %4.4 °C3 km/hONO13 km/h19.4 1008 hPa-
24/09/2022 13:3218.6 °C40 %4.4 °C-O10 km/h18.9 1008 hPa-
24/09/2022 13:3018.8 °C39 %4.4 °C-ONO13 km/h18.9 1008 hPa-
24/09/2022 13:1718.1 °C41 %4.4 °C2 km/hO11 km/h18.3 1008 hPa-
24/09/2022 13:1518.0 °C41 %4.4 °C-SO13 km/h17.8 1008 hPa-
24/09/2022 13:0218.8 °C41 %5.0 °C8 km/hONO8 km/h18.9 1008 hPa-
24/09/2022 13:0018.6 °C41 %5.0 °C2 km/hOSO8 km/h18.9 1008 hPa-
24/09/2022 12:4718.3 °C40 %4.4 °C2 km/hSSO6 km/h18.3 1008 hPa-
24/09/2022 12:4518.4 °C41 %5.0 °C5 km/hSSO8 km/h18.3 1008 hPa-
24/09/2022 12:3218.5 °C41 %5.0 °C2 km/hSO6 km/h18.3 1008 hPa-
24/09/2022 12:3018.6 °C42 %5.6 °C2 km/hSO8 km/h18.3 1008 hPa-
24/09/2022 12:1718.3 °C42 %5.0 °C---18.3 1008 hPa-
24/09/2022 12:1518.2 °C42 %5.0 °C-OSO2 km/h18.3 1008 hPa-
24/09/2022 12:0218.4 °C42 %5.0 °C---18.3 1008 hPa-
24/09/2022 12:0018.3 °C43 %5.6 °C-S2 km/h18.3 1009 hPa-
24/09/2022 11:4718.0 °C44 %5.6 °C---17.8 1008 hPa-
24/09/2022 11:4517.9 °C44 %5.6 °C---17.8 1008 hPa-
24/09/2022 11:3217.6 °C43 %5.0 °C---17.8 1008 hPa-
24/09/2022 11:2917.9 °C43 %5.0 °C---17.8 1008 hPa-
24/09/2022 11:1717.3 °C46 %5.6 °C---17.2 1009 hPa-
24/09/2022 11:1516.8 °C45 %5.0 °C---16.7 1009 hPa-
24/09/2022 11:0217.1 °C47 %5.6 °C---17.2 1009 hPa-
24/09/2022 11:0016.9 °C47 %5.6 °C---17.2 1009 hPa-
24/09/2022 10:4716.1 °C47 %4.4 °C---16.1 1009 hPa-
24/09/2022 10:4516.1 °C48 %5.0 °C---16.1 1009 hPa-
24/09/2022 10:3216.1 °C49 %5.0 °C---16.1 1009 hPa-
24/09/2022 10:3016.2 °C48 %5.0 °C---16.1 1009 hPa-
24/09/2022 10:1715.5 °C50 %5.0 °C---15.6 1009 hPa-
24/09/2022 10:1515.6 °C50 %5.0 °C---15.6 1009 hPa-
24/09/2022 10:0214.9 °C50 %4.4 °C---15.0 1008 hPa-
24/09/2022 10:0015.0 °C50 %4.4 °C---15.0 1008 hPa-
24/09/2022 09:4714.1 °C51 %3.9 °C---13.9 1008 hPa-
24/09/2022 09:4513.9 °C50 %3.3 °C---13.9 1008 hPa-
24/09/2022 09:3213.3 °C50 %2.8 °C---13.3 1008 hPa-
24/09/2022 09:3013.2 °C50 %2.8 °C---13.3 1008 hPa-
24/09/2022 09:1712.9 °C50 %2.8 °C---12.8 1008 hPa-
24/09/2022 09:1512.7 °C50 %2.2 °C---12.8 1008 hPa-
24/09/2022 09:0211.8 °C50 %1.7 °C---11.7 1008 hPa-
24/09/2022 09:0011.6 °C50 %1.7 °C---11.7 1008 hPa-
24/09/2022 08:4711.1 °C51 %1.1 °C---11.1 1008 hPa-
24/09/2022 08:4511.0 °C51 %1.1 °C---11.1 1008 hPa-
24/09/2022 08:3210.8 °C51 %1.1 °C---10.6 1008 hPa-
24/09/2022 08:3010.8 °C51 %1.1 °C---10.6 1008 hPa-
24/09/2022 08:1610.7 °C52 %1.1 °C---10.6 1008 hPa-
24/09/2022 08:1410.7 °C52 %1.1 °C---10.6 1008 hPa-
24/09/2022 08:0110.6 °C52 %1.1 °C---10.6 1008 hPa-
24/09/2022 08:0010.6 °C52 %1.1 °C---10.6 1008 hPa-
24/09/2022 07:4610.6 °C51 %0.6 °C---10.6 1008 hPa-
24/09/2022 07:4410.7 °C51 %0.6 °C---10.6 1008 hPa-
24/09/2022 07:3110.9 °C51 %1.1 °C---11.1 1008 hPa-
24/09/2022 07:3010.9 °C51 %1.1 °C---11.1 1008 hPa-
24/09/2022 07:1610.9 °C52 %1.1 °C---11.1 1008 hPa-
24/09/2022 07:1510.9 °C52 %1.1 °C---11.1 1008 hPa-
24/09/2022 07:0110.8 °C52 %1.1 °C---11.1 1008 hPa-
24/09/2022 06:5910.8 °C52 %1.1 °C---11.1 1008 hPa-
24/09/2022 06:4610.7 °C52 %1.1 °C---10.6 1008 hPa-
24/09/2022 06:4410.7 °C52 %1.1 °C---10.6 1008 hPa-
24/09/2022 06:3110.7 °C53 %1.1 °C---10.6 1008 hPa-
24/09/2022 06:3010.7 °C53 %1.1 °C---10.6 1008 hPa-
24/09/2022 06:1610.7 °C55 %1.7 °C---10.6 1008 hPa-
24/09/2022 06:1510.8 °C55 %2.2 °C---10.6 1008 hPa-
24/09/2022 06:0111.0 °C56 %2.2 °C---11.1 1008 hPa-
24/09/2022 06:0011.0 °C56 %2.2 °C---11.1 1008 hPa-
24/09/2022 05:4711.2 °C57 %2.8 °C---11.1 1008 hPa-
24/09/2022 05:4411.2 °C57 %2.8 °C---11.1 1008 hPa-
24/09/2022 05:3211.4 °C57 %2.8 °C---11.7 1008 hPa-
24/09/2022 05:3011.4 °C57 %3.3 °C---11.7 1008 hPa-
24/09/2022 05:1711.4 °C57 %3.3 °C---11.7 1008 hPa-
24/09/2022 05:1411.6 °C57 %3.3 °C---11.7 1008 hPa-
24/09/2022 05:0211.7 °C56 %3.3 °C---11.7 1008 hPa-
24/09/2022 05:0011.7 °C56 %3.3 °C---11.7 1008 hPa-
24/09/2022 04:4712.2 °C55 %3.3 °C---12.2 1008 hPa-
24/09/2022 04:4512.3 °C55 %3.3 °C---12.2 1008 hPa-
24/09/2022 04:3212.3 °C55 %3.3 °C---12.2 1008 hPa-
24/09/2022 04:3012.3 °C55 %3.3 °C---12.2 1008 hPa-
24/09/2022 04:1712.5 °C55 %3.3 °C---12.8 1008 hPa-
24/09/2022 04:1512.5 °C55 %3.3 °C---12.8 1008 hPa-
24/09/2022 04:0212.5 °C56 %3.9 °C---12.8 1008 hPa-
24/09/2022 04:0012.5 °C56 %3.9 °C---12.8 1008 hPa-
24/09/2022 03:4712.6 °C57 %4.4 °C---12.8 1008 hPa-
24/09/2022 03:4512.7 °C57 %4.4 °C---12.8 1008 hPa-
24/09/2022 03:3213.0 °C57 %4.4 °C---12.8 1008 hPa-
24/09/2022 03:3013.0 °C57 %4.4 °C---12.8 1008 hPa-
24/09/2022 03:1713.3 °C57 %5.0 °C---13.3 1008 hPa-
24/09/2022 03:1513.3 °C57 %5.0 °C---13.3 1008 hPa-
24/09/2022 03:0213.7 °C55 %4.4 °C---13.9 1008 hPa-
24/09/2022 03:0013.8 °C55 %5.0 °C---13.9 1009 hPa-
24/09/2022 02:4713.7 °C55 %4.4 °C---13.9 1009 hPa-
24/09/2022 02:4513.7 °C55 %4.4 °C---13.9 1009 hPa-
24/09/2022 02:3214.2 °C53 %4.4 °C---14.4 1009 hPa-
24/09/2022 02:3014.2 °C52 %4.4 °C---14.4 1009 hPa-
24/09/2022 02:1614.0 °C55 %5.0 °C---13.9 1009 hPa-
24/09/2022 02:1514.0 °C55 %5.0 °C---13.9 1009 hPa-
24/09/2022 02:0214.2 °C54 %5.0 °C---14.4 1009 hPa-
24/09/2022 02:0014.2 °C54 %5.0 °C---14.4 1009 hPa-
24/09/2022 01:4714.6 °C51 %4.4 °C---14.4 1009 hPa-
24/09/2022 01:4514.7 °C51 %4.4 °C---14.4 1009 hPa-
24/09/2022 01:3214.9 °C47 %3.3 °C---15.0 1009 hPa-
24/09/2022 01:3015.0 °C47 %3.9 °C---15.0 1009 hPa-
24/09/2022 01:1715.1 °C48 %3.9 °C---15.0 1009 hPa-
24/09/2022 01:1515.0 °C48 %3.9 °C---15.0 1009 hPa-
24/09/2022 01:0214.6 °C51 %4.4 °C---14.4 1009 hPa-
24/09/2022 01:0014.5 °C51 %4.4 °C---14.4 1009 hPa-
24/09/2022 00:4714.3 °C56 %5.6 °C---14.4 1009 hPa-
24/09/2022 00:4514.2 °C55 %5.0 °C---14.4 1009 hPa-
24/09/2022 00:3214.2 °C56 %5.6 °C---14.4 1009 hPa-
24/09/2022 00:3014.2 °C55 %5.0 °C---14.4 1009 hPa-
24/09/2022 00:1714.3 °C55 %5.0 °C---14.4 1009 hPa-
24/09/2022 00:1514.3 °C55 %5.6 °C---14.4 1009 hPa-
24/09/2022 00:0314.4 °C55 %5.6 °C---14.4 1009 hPa-
24/09/2022 00:0014.5 °C55 %5.6 °C---14.4 1009 hPa-


Minima :

Température : 10.6 °C
Humidité : 36 %
Point de rosée : 0.6 °C
Vent moyen : 2 km/h
Windchill : 10.6
Pression atm. : 1007 hPa
Maxima :

Température : 20.0 °C
Humidité : 57 %
Point de rosée : 7.2 °C
Vent moyen : 13 km/h
Windchill : 20.0
Pression atm. : 1009 hPa
Rafales max : 19 km/h
Cumul de pluie sur 24H : 0 mm

Aubigny-sur-Nère est une commune du département Cher (18).
La station météorologique du réseau de l'association la plus proche de Aubigny-sur-Nère est celle de Salbris



Icône Facebook Association Météo Centre Icône Twitter Association Météo Centre Icône Chaîne Youtube Association Météo Centre Icône contact Association Météo Centre Icône Insta Association Météo Centre